sensor_id;sensor_type;location;lat;lon;timestamp;temperature;humidity
51175;DHT22;37240;50.104;20.010;2023-03-14T00:04:05;13.80;62.90
51175;DHT22;37240;50.104;20.010;2023-03-14T00:09:06;13.90;62.10
51175;DHT22;37240;50.104;20.010;2023-03-14T00:14:06;14.00;61.70
51175;DHT22;37240;50.104;20.010;2023-03-14T00:19:07;14.00;61.50
51175;DHT22;37240;50.104;20.010;2023-03-14T00:24:08;14.10;61.30
51175;DHT22;37240;50.104;20.010;2023-03-14T00:29:09;14.10;61.00
51175;DHT22;37240;50.104;20.010;2023-03-14T00:34:09;14.10;61.00
51175;DHT22;37240;50.104;20.010;2023-03-14T00:39:10;14.20;61.20
51175;DHT22;37240;50.104;20.010;2023-03-14T00:44:10;14.20;61.10
51175;DHT22;37240;50.104;20.010;2023-03-14T00:49:11;14.20;60.90
51175;DHT22;37240;50.104;20.010;2023-03-14T00:54:11;14.20;60.80
51175;DHT22;37240;50.104;20.010;2023-03-14T00:59:12;14.20;60.60
51175;DHT22;37240;50.104;20.010;2023-03-14T01:04:13;14.10;60.10
51175;DHT22;37240;50.104;20.010;2023-03-14T01:09:13;14.10;60.10
51175;DHT22;37240;50.104;20.010;2023-03-14T01:14:14;14.10;59.60
51175;DHT22;37240;50.104;20.010;2023-03-14T01:19:14;14.10;59.80
51175;DHT22;37240;50.104;20.010;2023-03-14T01:24:15;14.00;60.00
51175;DHT22;37240;50.104;20.010;2023-03-14T01:29:16;13.90;61.00
51175;DHT22;37240;50.104;20.010;2023-03-14T01:34:16;13.90;60.10
51175;DHT22;37240;50.104;20.010;2023-03-14T01:39:17;13.90;60.40
51175;DHT22;37240;50.104;20.010;2023-03-14T01:44:17;13.70;60.90
51175;DHT22;37240;50.104;20.010;2023-03-14T01:49:22;13.80;61.40
51175;DHT22;37240;50.104;20.010;2023-03-14T01:59:31;13.70;62.00
51175;DHT22;37240;50.104;20.010;2023-03-14T02:04:34;13.60;62.40
51175;DHT22;37240;50.104;20.010;2023-03-14T02:09:36;13.60;62.70
51175;DHT22;37240;50.104;20.010;2023-03-14T02:14:38;13.60;63.10
51175;DHT22;37240;50.104;20.010;2023-03-14T02:25:20;13.50;64.10
51175;DHT22;37240;50.104;20.010;2023-03-14T02:30:27;13.30;64.90
51175;DHT22;37240;50.104;20.010;2023-03-14T02:35:34;13.30;65.60
51175;DHT22;37240;50.104;20.010;2023-03-14T02:40:35;13.10;66.00
51175;DHT22;37240;50.104;20.010;2023-03-14T02:45:50;13.10;66.70
51175;DHT22;37240;50.104;20.010;2023-03-14T02:50:54;13.10;67.10
51175;DHT22;37240;50.104;20.010;2023-03-14T02:55:55;13.10;67.30
51175;DHT22;37240;50.104;20.010;2023-03-14T03:00:56;13.10;67.60
51175;DHT22;37240;50.104;20.010;2023-03-14T03:05:57;13.00;67.60
51175;DHT22;37240;50.104;20.010;2023-03-14T03:10:58;13.00;68.00
51175;DHT22;37240;50.104;20.010;2023-03-14T03:15:58;13.00;68.20
51175;DHT22;37240;50.104;20.010;2023-03-14T03:21:00;13.10;68.30
51175;DHT22;37240;50.104;20.010;2023-03-14T03:26:01;13.00;68.50
51175;DHT22;37240;50.104;20.010;2023-03-14T03:31:09;13.00;68.80
51175;DHT22;37240;50.104;20.010;2023-03-14T03:36:10;12.90;69.00
51175;DHT22;37240;50.104;20.010;2023-03-14T03:41:11;12.90;69.00
51175;DHT22;37240;50.104;20.010;2023-03-14T03:46:11;12.80;69.20
51175;DHT22;37240;50.104;20.010;2023-03-14T03:51:13;12.70;70.00
51175;DHT22;37240;50.104;20.010;2023-03-14T03:56:14;12.70;71.10
51175;DHT22;37240;50.104;20.010;2023-03-14T04:01:15;12.50;71.60
51175;DHT22;37240;50.104;20.010;2023-03-14T04:06:15;12.50;72.20
51175;DHT22;37240;50.104;20.010;2023-03-14T04:11:16;12.50;72.10
51175;DHT22;37240;50.104;20.010;2023-03-14T04:16:18;12.60;72.40
51175;DHT22;37240;50.104;20.010;2023-03-14T04:21:19;12.50;72.20
51175;DHT22;37240;50.104;20.010;2023-03-14T04:26:20;12.60;71.90
51175;DHT22;37240;50.104;20.010;2023-03-14T04:31:21;12.60;71.60
51175;DHT22;37240;50.104;20.010;2023-03-14T04:36:22;12.70;71.60
51175;DHT22;37240;50.104;20.010;2023-03-14T04:41:22;12.80;71.00
51175;DHT22;37240;50.104;20.010;2023-03-14T04:46:23;12.90;71.50
51175;DHT22;37240;50.104;20.010;2023-03-14T04:51:24;12.80;72.50
51175;DHT22;37240;50.104;20.010;2023-03-14T04:56:24;12.70;72.50
51175;DHT22;37240;50.104;20.010;2023-03-14T05:01:25;12.60;74.20
51175;DHT22;37240;50.104;20.010;2023-03-14T05:06:25;12.30;76.20
51175;DHT22;37240;50.104;20.010;2023-03-14T05:11:26;12.00;78.60
51175;DHT22;37240;50.104;20.010;2023-03-14T05:16:26;12.00;78.30
51175;DHT22;37240;50.104;20.010;2023-03-14T05:21:27;11.90;78.90
51175;DHT22;37240;50.104;20.010;2023-03-14T05:26:28;12.10;78.80
51175;DHT22;37240;50.104;20.010;2023-03-14T05:31:28;12.20;77.60
51175;DHT22;37240;50.104;20.010;2023-03-14T05:36:29;12.40;77.40
51175;DHT22;37240;50.104;20.010;2023-03-14T05:41:29;12.60;76.80
51175;DHT22;37240;50.104;20.010;2023-03-14T05:46:30;12.90;75.30
51175;DHT22;37240;50.104;20.010;2023-03-14T05:51:30;13.30;73.70
51175;DHT22;37240;50.104;20.010;2023-03-14T05:56:31;13.30;73.00
51175;DHT22;37240;50.104;20.010;2023-03-14T06:01:31;13.30;73.10
51175;DHT22;37240;50.104;20.010;2023-03-14T06:06:32;13.30;73.50
51175;DHT22;37240;50.104;20.010;2023-03-14T06:11:33;13.20;74.00
51175;DHT22;37240;50.104;20.010;2023-03-14T06:16:33;13.40;73.30
51175;DHT22;37240;50.104;20.010;2023-03-14T06:21:34;13.50;72.90
51175;DHT22;37240;50.104;20.010;2023-03-14T06:26:35;13.70;72.00
51175;DHT22;37240;50.104;20.010;2023-03-14T06:31:36;14.00;71.70
51175;DHT22;37240;50.104;20.010;2023-03-14T06:36:36;14.10;73.20
51175;DHT22;37240;50.104;20.010;2023-03-14T06:41:37;14.30;73.70
51175;DHT22;37240;50.104;20.010;2023-03-14T06:46:37;14.70;72.90
51175;DHT22;37240;50.104;20.010;2023-03-14T06:51:38;15.00;69.50
51175;DHT22;37240;50.104;20.010;2023-03-14T06:56:38;15.20;67.90
51175;DHT22;37240;50.104;20.010;2023-03-14T07:01:39;15.70;65.70
51175;DHT22;37240;50.104;20.010;2023-03-14T07:06:40;16.30;63.30
51175;DHT22;37240;50.104;20.010;2023-03-14T07:11:40;16.70;61.60
51175;DHT22;37240;50.104;20.010;2023-03-14T07:16:41;17.30;59.30
51175;DHT22;37240;50.104;20.010;2023-03-14T07:21:41;18.00;58.10
51175;DHT22;37240;50.104;20.010;2023-03-14T07:26:42;18.60;56.70
51175;DHT22;37240;50.104;20.010;2023-03-14T07:31:42;19.00;54.70
51175;DHT22;37240;50.104;20.010;2023-03-14T07:36:43;19.30;53.40
51175;DHT22;37240;50.104;20.010;2023-03-14T07:41:43;19.30;53.00
51175;DHT22;37240;50.104;20.010;2023-03-14T07:46:44;19.50;52.90
51175;DHT22;37240;50.104;20.010;2023-03-14T07:51:47;19.70;52.10
51175;DHT22;37240;50.104;20.010;2023-03-14T07:56:48;19.90;51.80
51175;DHT22;37240;50.104;20.010;2023-03-14T08:01:48;19.80;51.10
51175;DHT22;37240;50.104;20.010;2023-03-14T08:06:49;19.70;51.50
51175;DHT22;37240;50.104;20.010;2023-03-14T08:11:49;19.70;51.50
51175;DHT22;37240;50.104;20.010;2023-03-14T08:16:50;20.00;51.30
51175;DHT22;37240;50.104;20.010;2023-03-14T08:21:51;20.30;50.60
51175;DHT22;37240;50.104;20.010;2023-03-14T08:26:52;20.50;50.10
51175;DHT22;37240;50.104;20.010;2023-03-14T08:31:52;20.50;49.60
51175;DHT22;37240;50.104;20.010;2023-03-14T08:36:54;20.40;49.90
51175;DHT22;37240;50.104;20.010;2023-03-14T08:41:54;20.30;49.70
51175;DHT22;37240;50.104;20.010;2023-03-14T08:46:55;20.30;49.00
51175;DHT22;37240;50.104;20.010;2023-03-14T08:51:56;20.20;49.10
51175;DHT22;37240;50.104;20.010;2023-03-14T08:56:57;20.30;49.20
51175;DHT22;37240;50.104;20.010;2023-03-14T09:01:57;20.30;49.00
51175;DHT22;37240;50.104;20.010;2023-03-14T09:06:59;20.30;49.10
51175;DHT22;37240;50.104;20.010;2023-03-14T09:11:59;20.40;48.20
51175;DHT22;37240;50.104;20.010;2023-03-14T09:17:00;20.30;48.20
51175;DHT22;37240;50.104;20.010;2023-03-14T09:22:00;20.20;48.90
51175;DHT22;37240;50.104;20.010;2023-03-14T09:27:01;20.10;49.00
51175;DHT22;37240;50.104;20.010;2023-03-14T09:32:01;19.80;48.60
51175;DHT22;37240;50.104;20.010;2023-03-14T09:37:02;19.60;48.80
51175;DHT22;37240;50.104;20.010;2023-03-14T09:42:06;19.60;49.40
51175;DHT22;37240;50.104;20.010;2023-03-14T09:47:12;19.50;49.40
51175;DHT22;37240;50.104;20.010;2023-03-14T09:52:27;19.50;49.40
51175;DHT22;37240;50.104;20.010;2023-03-14T09:57:29;19.50;50.00
51175;DHT22;37240;50.104;20.010;2023-03-14T10:02:35;19.50;49.90
51175;DHT22;37240;50.104;20.010;2023-03-14T10:07:35;19.50;49.80
51175;DHT22;37240;50.104;20.010;2023-03-14T10:12:37;19.50;50.00
51175;DHT22;37240;50.104;20.010;2023-03-14T10:17:43;19.60;50.30
51175;DHT22;37240;50.104;20.010;2023-03-14T10:22:43;19.70;50.00
51175;DHT22;37240;50.104;20.010;2023-03-14T10:27:44;19.70;49.70
51175;DHT22;37240;50.104;20.010;2023-03-14T10:32:46;19.70;49.50
51175;DHT22;37240;50.104;20.010;2023-03-14T10:37:59;19.70;50.70
51175;DHT22;37240;50.104;20.010;2023-03-14T10:43:04;19.80;50.50
51175;DHT22;37240;50.104;20.010;2023-03-14T10:48:19;20.00;50.30
51175;DHT22;37240;50.104;20.010;2023-03-14T10:53:20;20.00;50.40
51175;DHT22;37240;50.104;20.010;2023-03-14T10:58:24;20.00;51.40
51175;DHT22;37240;50.104;20.010;2023-03-14T11:03:26;19.90;50.70
51175;DHT22;37240;50.104;20.010;2023-03-14T11:08:37;19.80;51.00
51175;DHT22;37240;50.104;20.010;2023-03-14T11:30:15;19.20;52.70
51175;DHT22;37240;50.104;20.010;2023-03-14T11:35:22;19.10;53.20
51175;DHT22;37240;50.104;20.010;2023-03-14T11:40:27;19.10;53.60
51175;DHT22;37240;50.104;20.010;2023-03-14T11:45:38;19.10;53.50
51175;DHT22;37240;50.104;20.010;2023-03-14T11:50:43;19.10;53.60
51175;DHT22;37240;50.104;20.010;2023-03-14T11:55:44;19.10;53.90
51175;DHT22;37240;50.104;20.010;2023-03-14T12:00:47;19.10;54.00
51175;DHT22;37240;50.104;20.010;2023-03-14T12:05:57;19.10;54.30
51175;DHT22;37240;50.104;20.010;2023-03-14T12:16:33;18.80;54.70
51175;DHT22;37240;50.104;20.010;2023-03-14T12:22:05;18.80;55.10
51175;DHT22;37240;50.104;20.010;2023-03-14T12:27:13;18.70;55.40
51175;DHT22;37240;50.104;20.010;2023-03-14T12:32:33;18.70;55.60
51175;DHT22;37240;50.104;20.010;2023-03-14T12:37:37;18.90;55.60
51175;DHT22;37240;50.104;20.010;2023-03-14T12:43:02;18.90;55.70
51175;DHT22;37240;50.104;20.010;2023-03-14T12:48:22;19.00;57.00
51175;DHT22;37240;50.104;20.010;2023-03-14T13:04:09;19.00;55.00
51175;DHT22;37240;50.104;20.010;2023-03-14T13:14:31;18.70;55.10
51175;DHT22;37240;50.104;20.010;2023-03-14T13:19:33;18.50;55.60
51175;DHT22;37240;50.104;20.010;2023-03-14T13:24:34;18.40;56.00
51175;DHT22;37240;50.104;20.010;2023-03-14T13:29:35;18.20;56.60
51175;DHT22;37240;50.104;20.010;2023-03-14T13:34:36;18.20;56.90
51175;DHT22;37240;50.104;20.010;2023-03-14T13:39:39;18.10;57.30
51175;DHT22;37240;50.104;20.010;2023-03-14T13:44:40;18.00;57.60
51175;DHT22;37240;50.104;20.010;2023-03-14T13:49:41;17.90;58.20
51175;DHT22;37240;50.104;20.010;2023-03-14T13:54:42;17.70;58.90
51175;DHT22;37240;50.104;20.010;2023-03-14T13:59:43;17.60;59.50
51175;DHT22;37240;50.104;20.010;2023-03-14T14:04:43;17.50;59.90
51175;DHT22;37240;50.104;20.010;2023-03-14T14:09:49;17.40;60.70
51175;DHT22;37240;50.104;20.010;2023-03-14T14:20:10;17.30;61.80
51175;DHT22;37240;50.104;20.010;2023-03-14T14:25:14;17.20;62.30
51175;DHT22;37240;50.104;20.010;2023-03-14T14:35:31;17.00;64.40
51175;DHT22;37240;50.104;20.010;2023-03-14T14:40:32;16.90;65.70
51175;DHT22;37240;50.104;20.010;2023-03-14T14:45:34;16.90;66.60
51175;DHT22;37240;50.104;20.010;2023-03-14T14:50:48;16.90;68.10
51175;DHT22;37240;50.104;20.010;2023-03-14T14:55:51;16.70;69.90
51175;DHT22;37240;50.104;20.010;2023-03-14T15:05:58;16.60;73.20
51175;DHT22;37240;50.104;20.010;2023-03-14T15:10:59;16.50;74.00
51175;DHT22;37240;50.104;20.010;2023-03-14T15:15:59;16.50;74.70
51175;DHT22;37240;50.104;20.010;2023-03-14T15:21:00;16.50;75.70
51175;DHT22;37240;50.104;20.010;2023-03-14T15:26:01;16.40;77.60
51175;DHT22;37240;50.104;20.010;2023-03-14T15:31:01;16.30;78.70
51175;DHT22;37240;50.104;20.010;2023-03-14T15:36:03;16.20;79.70
51175;DHT22;37240;50.104;20.010;2023-03-14T15:41:04;16.20;80.90
51175;DHT22;37240;50.104;20.010;2023-03-14T15:46:05;16.20;81.60
51175;DHT22;37240;50.104;20.010;2023-03-14T15:51:05;16.10;82.60
51175;DHT22;37240;50.104;20.010;2023-03-14T15:56:10;16.00;83.70
51175;DHT22;37240;50.104;20.010;2023-03-14T16:01:11;15.90;84.90
51175;DHT22;37240;50.104;20.010;2023-03-14T16:06:12;15.90;86.90
51175;DHT22;37240;50.104;20.010;2023-03-14T16:11:14;15.90;87.90
51175;DHT22;37240;50.104;20.010;2023-03-14T16:16:15;15.80;89.80
51175;DHT22;37240;50.104;20.010;2023-03-14T16:21:17;15.70;90.80
51175;DHT22;37240;50.104;20.010;2023-03-14T16:26:19;15.60;92.00
51175;DHT22;37240;50.104;20.010;2023-03-14T16:31:20;15.50;93.10
51175;DHT22;37240;50.104;20.010;2023-03-14T16:36:20;15.40;93.70
51175;DHT22;37240;50.104;20.010;2023-03-14T16:41:21;15.30;94.10
51175;DHT22;37240;50.104;20.010;2023-03-14T16:46:21;15.20;95.10
51175;DHT22;37240;50.104;20.010;2023-03-14T16:51:23;15.10;95.90
51175;DHT22;37240;50.104;20.010;2023-03-14T16:56:24;15.10;96.40
51175;DHT22;37240;50.104;20.010;2023-03-14T17:01:24;15.10;96.70
51175;DHT22;37240;50.104;20.010;2023-03-14T17:06:26;15.00;97.10
51175;DHT22;37240;50.104;20.010;2023-03-14T17:11:27;14.90;97.60
51175;DHT22;37240;50.104;20.010;2023-03-14T17:16:28;14.90;97.80
51175;DHT22;37240;50.104;20.010;2023-03-14T17:21:29;14.90;98.10
51175;DHT22;37240;50.104;20.010;2023-03-14T17:26:29;14.90;98.40
51175;DHT22;37240;50.104;20.010;2023-03-14T17:31:30;14.70;98.90
51175;DHT22;37240;50.104;20.010;2023-03-14T17:36:30;14.40;99.60
51175;DHT22;37240;50.104;20.010;2023-03-14T17:41:31;14.30;99.90
51175;DHT22;37240;50.104;20.010;2023-03-14T17:46:31;14.20;99.90
51175;DHT22;37240;50.104;20.010;2023-03-14T17:51:32;14.30;99.90
51175;DHT22;37240;50.104;20.010;2023-03-14T17:56:32;14.40;99.90
51175;DHT22;37240;50.104;20.010;2023-03-14T18:01:33;14.40;99.90
51175;DHT22;37240;50.104;20.010;2023-03-14T18:06:34;14.50;99.90
51175;DHT22;37240;50.104;20.010;2023-03-14T18:11:35;14.40;99.90
51175;DHT22;37240;50.104;20.010;2023-03-14T18:16:35;14.40;99.90
51175;DHT22;37240;50.104;20.010;2023-03-14T18:21:36;14.40;99.90
51175;DHT22;37240;50.104;20.010;2023-03-14T18:26:37;14.40;99.90
51175;DHT22;37240;50.104;20.010;2023-03-14T18:31:37;14.20;99.90
51175;DHT22;37240;50.104;20.010;2023-03-14T18:36:38;14.20;99.90
51175;DHT22;37240;50.104;20.010;2023-03-14T18:41:38;14.20;99.90
51175;DHT22;37240;50.104;20.010;2023-03-14T18:46:39;14.20;99.90
51175;DHT22;37240;50.104;20.010;2023-03-14T18:51:40;14.20;99.90
51175;DHT22;37240;50.104;20.010;2023-03-14T18:56:41;14.20;99.90
51175;DHT22;37240;50.104;20.010;2023-03-14T19:01:41;14.10;99.90
51175;DHT22;37240;50.104;20.010;2023-03-14T19:06:42;14.00;99.90
51175;DHT22;37240;50.104;20.010;2023-03-14T19:11:42;13.90;99.90
51175;DHT22;37240;50.104;20.010;2023-03-14T19:16:43;13.80;99.90
51175;DHT22;37240;50.104;20.010;2023-03-14T19:21:43;13.70;99.90
51175;DHT22;37240;50.104;20.010;2023-03-14T19:26:44;13.60;99.90
51175;DHT22;37240;50.104;20.010;2023-03-14T19:31:45;13.50;99.90
51175;DHT22;37240;50.104;20.010;2023-03-14T19:36:45;13.40;99.90
51175;DHT22;37240;50.104;20.010;2023-03-14T19:41:46;13.30;99.90
51175;DHT22;37240;50.104;20.010;2023-03-14T19:46:46;13.20;99.90
51175;DHT22;37240;50.104;20.010;2023-03-14T19:51:48;13.10;99.90
51175;DHT22;37240;50.104;20.010;2023-03-14T19:56:49;13.10;99.90
51175;DHT22;37240;50.104;20.010;2023-03-14T20:01:50;13.10;99.90
51175;DHT22;37240;50.104;20.010;2023-03-14T20:06:51;13.00;99.90
51175;DHT22;37240;50.104;20.010;2023-03-14T20:11:51;13.00;99.90
51175;DHT22;37240;50.104;20.010;2023-03-14T20:16:52;12.90;99.90
51175;DHT22;37240;50.104;20.010;2023-03-14T20:21:53;12.90;99.90
51175;DHT22;37240;50.104;20.010;2023-03-14T20:26:53;12.90;99.90
51175;DHT22;37240;50.104;20.010;2023-03-14T20:31:54;12.90;99.90
51175;DHT22;37240;50.104;20.010;2023-03-14T20:36:55;12.90;99.90
51175;DHT22;37240;50.104;20.010;2023-03-14T20:41:56;12.90;99.90
51175;DHT22;37240;50.104;20.010;2023-03-14T20:46:57;12.70;99.90
51175;DHT22;37240;50.104;20.010;2023-03-14T20:51:57;12.70;99.90
51175;DHT22;37240;50.104;20.010;2023-03-14T20:56:58;12.70;99.90
51175;DHT22;37240;50.104;20.010;2023-03-14T21:01:58;12.60;99.90
51175;DHT22;37240;50.104;20.010;2023-03-14T21:06:59;12.50;99.90
51175;DHT22;37240;50.104;20.010;2023-03-14T21:11:59;12.40;99.90
51175;DHT22;37240;50.104;20.010;2023-03-14T21:17:00;12.40;99.90
51175;DHT22;37240;50.104;20.010;2023-03-14T21:22:03;12.50;99.90
51175;DHT22;37240;50.104;20.010;2023-03-14T21:27:04;12.50;99.90
51175;DHT22;37240;50.104;20.010;2023-03-14T21:32:04;12.50;99.90
51175;DHT22;37240;50.104;20.010;2023-03-14T21:37:05;12.50;99.90
51175;DHT22;37240;50.104;20.010;2023-03-14T21:42:05;12.40;99.90
51175;DHT22;37240;50.104;20.010;2023-03-14T21:47:07;12.40;99.90
51175;DHT22;37240;50.104;20.010;2023-03-14T21:52:11;12.40;99.90
51175;DHT22;37240;50.104;20.010;2023-03-14T21:57:13;12.40;99.90
51175;DHT22;37240;50.104;20.010;2023-03-14T22:02:17;12.30;99.90
51175;DHT22;37240;50.104;20.010;2023-03-14T22:07:18;12.20;99.90
51175;DHT22;37240;50.104;20.010;2023-03-14T22:12:18;12.10;99.90
51175;DHT22;37240;50.104;20.010;2023-03-14T22:17:19;12.10;99.90
51175;DHT22;37240;50.104;20.010;2023-03-14T22:22:19;12.20;99.90
51175;DHT22;37240;50.104;20.010;2023-03-14T22:27:20;12.20;99.90
51175;DHT22;37240;50.104;20.010;2023-03-14T22:32:20;12.10;99.90
51175;DHT22;37240;50.104;20.010;2023-03-14T22:37:21;12.20;99.80
51175;DHT22;37240;50.104;20.010;2023-03-14T22:42:21;12.20;99.60
51175;DHT22;37240;50.104;20.010;2023-03-14T22:47:22;12.30;99.50
51175;DHT22;37240;50.104;20.010;2023-03-14T22:52:23;12.30;99.40
51175;DHT22;37240;50.104;20.010;2023-03-14T22:57:23;12.30;99.20
51175;DHT22;37240;50.104;20.010;2023-03-14T23:02:24;12.30;99.00
51175;DHT22;37240;50.104;20.010;2023-03-14T23:07:24;12.30;99.10
51175;DHT22;37240;50.104;20.010;2023-03-14T23:12:25;12.30;99.10
51175;DHT22;37240;50.104;20.010;2023-03-14T23:17:26;12.30;98.90
51175;DHT22;37240;50.104;20.010;2023-03-14T23:22:26;12.30;98.90
51175;DHT22;37240;50.104;20.010;2023-03-14T23:27:27;12.30;99.00
51175;DHT22;37240;50.104;20.010;2023-03-14T23:32:28;12.40;98.90
51175;DHT22;37240;50.104;20.010;2023-03-14T23:37:28;12.50;98.80
51175;DHT22;37240;50.104;20.010;2023-03-14T23:42:29;12.50;98.70
51175;DHT22;37240;50.104;20.010;2023-03-14T23:47:29;12.50;98.80
51175;DHT22;37240;50.104;20.010;2023-03-14T23:52:30;12.50;98.90
51175;DHT22;37240;50.104;20.010;2023-03-14T23:57:30;12.50;99.00
